sensor_id;sensor_type;location;lat;lon;timestamp;pressure;altitude;pressure_sealevel;temperature;humidity
3082;BME280;1551;51.046;7.010;2023-03-26T00:02:39;100128.88;;;11.09;72.34
3082;BME280;1551;51.046;7.010;2023-03-26T00:05:28;100130.69;;;11.03;71.94
3082;BME280;1551;51.046;7.010;2023-03-26T00:08:19;100130.66;;;11.05;71.95
3082;BME280;1551;51.046;7.010;2023-03-26T00:11:12;100133.25;;;11.03;72.40
3082;BME280;1551;51.046;7.010;2023-03-26T00:14:01;100134.91;;;11.04;72.56
3082;BME280;1551;51.046;7.010;2023-03-26T00:16:51;100130.72;;;11.02;72.24
3082;BME280;1551;51.046;7.010;2023-03-26T00:19:41;100135.81;;;11.03;72.80
3082;BME280;1551;51.046;7.010;2023-03-26T00:22:31;100146.13;;;11.00;72.63
3082;BME280;1551;51.046;7.010;2023-03-26T00:25:21;100140.03;;;11.06;73.05
3082;BME280;1551;51.046;7.010;2023-03-26T00:28:11;100144.31;;;11.05;73.47
3082;BME280;1551;51.046;7.010;2023-03-26T00:31:03;100139.03;;;11.12;73.48
3082;BME280;1551;51.046;7.010;2023-03-26T00:33:53;100140.66;;;11.17;73.56
3082;BME280;1551;51.046;7.010;2023-03-26T00:36:43;100129.53;;;11.17;73.74
3082;BME280;1551;51.046;7.010;2023-03-26T00:39:34;100121.72;;;11.24;73.69
3082;BME280;1551;51.046;7.010;2023-03-26T00:42:25;100124.25;;;11.24;73.19
3082;BME280;1551;51.046;7.010;2023-03-26T00:45:14;100125.13;;;11.23;73.31
3082;BME280;1551;51.046;7.010;2023-03-26T00:48:05;100123.41;;;11.25;73.36
3082;BME280;1551;51.046;7.010;2023-03-26T00:50:55;100117.44;;;11.25;73.27
3082;BME280;1551;51.046;7.010;2023-03-26T00:53:45;100114.06;;;11.23;73.30
3082;BME280;1551;51.046;7.010;2023-03-26T00:56:35;100112.38;;;11.22;73.53
3082;BME280;1551;51.046;7.010;2023-03-26T00:59:24;100114.06;;;11.21;73.40
3082;BME280;1551;51.046;7.010;2023-03-26T01:02:18;100107.31;;;11.19;73.29
3082;BME280;1551;51.046;7.010;2023-03-26T01:05:47;100096.94;;;11.25;73.69
3082;BME280;1551;51.046;7.010;2023-03-26T01:08:42;100095.94;;;11.32;72.91
3082;BME280;1551;51.046;7.010;2023-03-26T01:11:34;100083.19;;;11.29;73.25
3082;BME280;1551;51.046;7.010;2023-03-26T01:14:24;100079.66;;;11.33;73.63
3082;BME280;1551;51.046;7.010;2023-03-26T01:17:14;100079.53;;;11.39;73.08
3082;BME280;1551;51.046;7.010;2023-03-26T01:20:12;100071.91;;;11.36;73.00
3082;BME280;1551;51.046;7.010;2023-03-26T01:23:05;100054.31;;;11.21;73.06
3082;BME280;1551;51.046;7.010;2023-03-26T01:26:07;100045.78;;;11.22;73.17
3082;BME280;1551;51.046;7.010;2023-03-26T01:29:01;100048.34;;;11.22;73.40
3082;BME280;1551;51.046;7.010;2023-03-26T01:32:21;100054.19;;;11.27;73.76
3082;BME280;1551;51.046;7.010;2023-03-26T01:35:28;100050.00;;;11.24;73.25
3082;BME280;1551;51.046;7.010;2023-03-26T01:41:31;100031.59;;;11.07;73.26
3082;BME280;1551;51.046;7.010;2023-03-26T01:44:49;100027.38;;;11.04;73.68
3082;BME280;1551;51.046;7.010;2023-03-26T01:47:41;100026.69;;;10.98;74.11
3082;BME280;1551;51.046;7.010;2023-03-26T01:50:30;100023.47;;;10.88;73.61
3082;BME280;1551;51.046;7.010;2023-03-26T01:53:19;100026.28;;;10.78;74.47
3082;BME280;1551;51.046;7.010;2023-03-26T02:02:40;100021.47;;;10.63;73.62
3082;BME280;1551;51.046;7.010;2023-03-26T02:06:00;100012.91;;;10.65;73.85
3082;BME280;1551;51.046;7.010;2023-03-26T02:08:58;100000.34;;;10.55;73.78
3082;BME280;1551;51.046;7.010;2023-03-26T02:11:49;100000.31;;;10.56;73.54
3082;BME280;1551;51.046;7.010;2023-03-26T02:14:40;99996.09;;;10.54;73.70
3082;BME280;1551;51.046;7.010;2023-03-26T02:17:30;99981.00;;;10.42;73.98
3082;BME280;1551;51.046;7.010;2023-03-26T02:20:21;99988.66;;;10.43;73.78
3082;BME280;1551;51.046;7.010;2023-03-26T02:23:10;99981.75;;;10.47;73.68
3082;BME280;1551;51.046;7.010;2023-03-26T02:25:59;99980.78;;;10.51;73.13
3082;BME280;1551;51.046;7.010;2023-03-26T02:28:49;99981.84;;;10.42;72.92
3082;BME280;1551;51.046;7.010;2023-03-26T02:31:38;99970.91;;;10.35;73.07
3082;BME280;1551;51.046;7.010;2023-03-26T02:34:27;99964.75;;;10.44;73.00
3082;BME280;1551;51.046;7.010;2023-03-26T02:37:16;99954.66;;;10.38;73.38
3082;BME280;1551;51.046;7.010;2023-03-26T02:40:08;99954.66;;;10.38;73.24
3082;BME280;1551;51.046;7.010;2023-03-26T02:43:00;99942.75;;;10.35;73.32
3082;BME280;1551;51.046;7.010;2023-03-26T02:45:54;99946.13;;;10.38;73.65
3082;BME280;1551;51.046;7.010;2023-03-26T02:49:02;99919.97;;;10.25;73.12
3082;BME280;1551;51.046;7.010;2023-03-26T02:51:51;99933.34;;;10.38;73.24
3082;BME280;1551;51.046;7.010;2023-03-26T02:54:48;99923.25;;;10.31;73.39
3082;BME280;1551;51.046;7.010;2023-03-26T02:57:42;99924.00;;;10.35;73.45
3082;BME280;1551;51.046;7.010;2023-03-26T03:00:40;99917.19;;;10.35;73.06
3082;BME280;1551;51.046;7.010;2023-03-26T03:03:46;99905.25;;;10.34;73.28
3082;BME280;1551;51.046;7.010;2023-03-26T03:06:45;99914.47;;;10.43;72.61
3082;BME280;1551;51.046;7.010;2023-03-26T03:09:35;99910.97;;;10.46;72.75
3082;BME280;1551;51.046;7.010;2023-03-26T03:12:44;99901.63;;;10.45;72.95
3082;BME280;1551;51.046;7.010;2023-03-26T03:15:33;99906.59;;;10.52;73.28
3082;BME280;1551;51.046;7.010;2023-03-26T03:18:23;99895.56;;;10.49;73.29
3082;BME280;1551;51.046;7.010;2023-03-26T03:21:12;99897.97;;;10.56;72.48
3082;BME280;1551;51.046;7.010;2023-03-26T03:24:01;99876.00;;;10.48;73.04
3082;BME280;1551;51.046;7.010;2023-03-26T03:26:54;99890.13;;;10.64;72.72
3082;BME280;1551;51.046;7.010;2023-03-26T03:30:16;99888.47;;;10.61;72.24
3082;BME280;1551;51.046;7.010;2023-03-26T03:33:08;99885.81;;;10.66;72.91
3082;BME280;1551;51.046;7.010;2023-03-26T03:35:57;99855.31;;;10.57;71.94
3082;BME280;1551;51.046;7.010;2023-03-26T03:38:48;99872.78;;;10.75;72.50
3082;BME280;1551;51.046;7.010;2023-03-26T03:41:41;99875.28;;;10.78;71.93
3082;BME280;1551;51.046;7.010;2023-03-26T03:44:35;99860.06;;;10.72;72.71
3082;BME280;1551;51.046;7.010;2023-03-26T03:47:28;99868.47;;;10.77;72.15
3082;BME280;1551;51.046;7.010;2023-03-26T03:50:17;99866.81;;;10.76;72.20
3082;BME280;1551;51.046;7.010;2023-03-26T03:53:22;99844.78;;;10.69;72.35
3082;BME280;1551;51.046;7.010;2023-03-26T03:56:15;99852.47;;;10.69;73.16
3082;BME280;1551;51.046;7.010;2023-03-26T03:59:32;99855.94;;;10.66;73.64
3082;BME280;1551;51.046;7.010;2023-03-26T04:02:24;99847.47;;;10.63;73.16
3082;BME280;1551;51.046;7.010;2023-03-26T04:05:21;99844.19;;;10.59;73.71
3082;BME280;1551;51.046;7.010;2023-03-26T04:08:12;99837.28;;;10.61;73.93
3082;BME280;1551;51.046;7.010;2023-03-26T04:11:11;99836.50;;;10.58;73.95
3082;BME280;1551;51.046;7.010;2023-03-26T04:14:30;99839.22;;;10.52;74.91
3082;BME280;1551;51.046;7.010;2023-03-26T04:17:22;99816.44;;;10.43;75.02
3082;BME280;1551;51.046;7.010;2023-03-26T04:20:13;99822.34;;;10.45;75.29
3082;BME280;1551;51.046;7.010;2023-03-26T04:23:03;99808.72;;;10.44;75.32
3082;BME280;1551;51.046;7.010;2023-03-26T04:25:53;99807.84;;;10.45;75.79
3082;BME280;1551;51.046;7.010;2023-03-26T04:28:55;99804.44;;;10.45;76.44
3082;BME280;1551;51.046;7.010;2023-03-26T04:31:49;99795.06;;;10.44;75.74
3082;BME280;1551;51.046;7.010;2023-03-26T04:34:40;99793.28;;;10.47;76.80
3082;BME280;1551;51.046;7.010;2023-03-26T04:37:37;99783.19;;;10.43;76.36
3082;BME280;1551;51.046;7.010;2023-03-26T04:40:42;99784.09;;;10.38;77.06
3082;BME280;1551;51.046;7.010;2023-03-26T04:43:53;99777.25;;;10.41;78.63
3082;BME280;1551;51.046;7.010;2023-03-26T04:46:58;99771.31;;;10.38;78.40
3082;BME280;1551;51.046;7.010;2023-03-26T04:49:53;99767.97;;;10.36;78.25
3082;BME280;1551;51.046;7.010;2023-03-26T04:52:42;99761.41;;;10.26;77.12
3082;BME280;1551;51.046;7.010;2023-03-26T04:59:40;99765.59;;;10.29;78.11
3082;BME280;1551;51.046;7.010;2023-03-26T05:02:34;99756.34;;;10.23;79.18
3082;BME280;1551;51.046;7.010;2023-03-26T05:05:27;99727.56;;;10.15;79.06
3082;BME280;1551;51.046;7.010;2023-03-26T05:08:20;99748.53;;;10.29;78.43
3082;BME280;1551;51.046;7.010;2023-03-26T05:11:09;99750.38;;;10.24;79.36
3082;BME280;1551;51.046;7.010;2023-03-26T05:13:59;99745.34;;;10.20;79.22
3082;BME280;1551;51.046;7.010;2023-03-26T05:16:50;99751.19;;;10.26;79.05
3082;BME280;1551;51.046;7.010;2023-03-26T05:19:41;99731.56;;;10.25;78.81
3082;BME280;1551;51.046;7.010;2023-03-26T05:22:29;99740.22;;;10.21;78.61
3082;BME280;1551;51.046;7.010;2023-03-26T05:25:32;99732.66;;;10.17;78.80
3082;BME280;1551;51.046;7.010;2023-03-26T05:28:22;99726.84;;;10.09;78.75
3082;BME280;1551;51.046;7.010;2023-03-26T05:31:33;99720.72;;;10.16;79.41
3082;BME280;1551;51.046;7.010;2023-03-26T05:34:24;99722.38;;;10.18;78.85
3082;BME280;1551;51.046;7.010;2023-03-26T05:37:15;99717.22;;;10.20;79.59
3082;BME280;1551;51.046;7.010;2023-03-26T05:40:17;99697.72;;;10.16;79.38
3082;BME280;1551;51.046;7.010;2023-03-26T05:43:19;99704.38;;;10.23;79.64
3082;BME280;1551;51.046;7.010;2023-03-26T05:46:27;99705.94;;;10.28;79.22
3082;BME280;1551;51.046;7.010;2023-03-26T05:49:16;99698.28;;;10.28;79.00
3082;BME280;1551;51.046;7.010;2023-03-26T05:52:05;99691.50;;;10.26;79.48
3082;BME280;1551;51.046;7.010;2023-03-26T05:55:13;99679.59;;;10.25;79.76
3082;BME280;1551;51.046;7.010;2023-03-26T05:58:21;99694.03;;;10.27;79.51
3082;BME280;1551;51.046;7.010;2023-03-26T06:01:29;99681.34;;;10.23;79.27
3082;BME280;1551;51.046;7.010;2023-03-26T06:04:38;99679.75;;;10.19;79.54
3082;BME280;1551;51.046;7.010;2023-03-26T06:07:56;99678.97;;;10.17;79.19
3082;BME280;1551;51.046;7.010;2023-03-26T06:11:03;99680.81;;;10.10;79.84
3082;BME280;1551;51.046;7.010;2023-03-26T06:13:58;99673.88;;;10.15;80.24
3082;BME280;1551;51.046;7.010;2023-03-26T06:16:47;99674.84;;;10.10;79.74
3082;BME280;1551;51.046;7.010;2023-03-26T06:19:40;99673.44;;;9.98;81.39
3082;BME280;1551;51.046;7.010;2023-03-26T06:22:44;99649.91;;;9.84;81.58
3082;BME280;1551;51.046;7.010;2023-03-26T06:25:52;99660.72;;;9.95;82.46
3082;BME280;1551;51.046;7.010;2023-03-26T06:28:48;99639.59;;;9.87;83.48
3082;BME280;1551;51.046;7.010;2023-03-26T06:32:06;99646.44;;;9.87;83.50
3082;BME280;1551;51.046;7.010;2023-03-26T06:34:59;99636.84;;;9.96;84.61
3082;BME280;1551;51.046;7.010;2023-03-26T06:37:48;99628.41;;;9.93;85.00
3082;BME280;1551;51.046;7.010;2023-03-26T06:40:37;99629.06;;;9.99;85.23
3082;BME280;1551;51.046;7.010;2023-03-26T06:43:45;99629.06;;;10.01;85.65
3082;BME280;1551;51.046;7.010;2023-03-26T06:46:52;99622.88;;;10.09;85.54
3082;BME280;1551;51.046;7.010;2023-03-26T06:50:08;99619.38;;;10.13;85.71
3082;BME280;1551;51.046;7.010;2023-03-26T06:53:29;99623.69;;;10.11;85.81
3082;BME280;1551;51.046;7.010;2023-03-26T06:56:39;99619.59;;;10.04;86.38
3082;BME280;1551;51.046;7.010;2023-03-26T06:59:43;99610.50;;;9.93;85.85
3082;BME280;1551;51.046;7.010;2023-03-26T07:02:52;99617.22;;;9.97;86.93
3082;BME280;1551;51.046;7.010;2023-03-26T07:06:00;99604.53;;;9.94;87.25
3082;BME280;1551;51.046;7.010;2023-03-26T07:09:08;99601.84;;;9.98;87.35
3082;BME280;1551;51.046;7.010;2023-03-26T07:12:15;99602.66;;;9.99;87.59
3082;BME280;1551;51.046;7.010;2023-03-26T07:15:07;99595.84;;;9.99;88.00
3082;BME280;1551;51.046;7.010;2023-03-26T07:18:24;99597.47;;;10.03;88.36
3082;BME280;1551;51.046;7.010;2023-03-26T07:21:14;99585.63;;;10.01;88.39
3082;BME280;1551;51.046;7.010;2023-03-26T07:24:04;99577.16;;;9.97;88.76
3082;BME280;1551;51.046;7.010;2023-03-26T07:27:30;99582.94;;;10.05;88.87
3082;BME280;1551;51.046;7.010;2023-03-26T07:30:35;99577.81;;;10.05;89.25
3082;BME280;1551;51.046;7.010;2023-03-26T07:37:49;99572.44;;;10.17;89.56
3082;BME280;1551;51.046;7.010;2023-03-26T07:45:36;99565.38;;;10.25;89.24
3082;BME280;1551;51.046;7.010;2023-03-26T07:48:42;99559.59;;;10.19;89.55
3082;BME280;1551;51.046;7.010;2023-03-26T07:52:11;99555.22;;;10.22;90.09
3082;BME280;1551;51.046;7.010;2023-03-26T07:55:19;99554.28;;;10.26;90.24
3082;BME280;1551;51.046;7.010;2023-03-26T07:58:55;99560.25;;;10.25;90.09
3082;BME280;1551;51.046;7.010;2023-03-26T08:02:34;99549.28;;;10.22;89.97
3082;BME280;1551;51.046;7.010;2023-03-26T08:05:59;99544.91;;;10.25;90.64
3082;BME280;1551;51.046;7.010;2023-03-26T08:09:10;99539.22;;;10.16;89.89
3082;BME280;1551;51.046;7.010;2023-03-26T08:18:47;99541.84;;;10.13;89.77
3082;BME280;1551;51.046;7.010;2023-03-26T08:21:50;99542.81;;;10.07;89.71
3082;BME280;1551;51.046;7.010;2023-03-26T08:31:11;99535.97;;;10.09;90.98
3082;BME280;1551;51.046;7.010;2023-03-26T08:34:01;99532.59;;;10.07;90.47
3082;BME280;1551;51.046;7.010;2023-03-26T08:36:50;99525.97;;;10.00;90.98
3082;BME280;1551;51.046;7.010;2023-03-26T08:39:42;99523.38;;;10.02;91.25
3082;BME280;1551;51.046;7.010;2023-03-26T08:49:00;99525.69;;;10.11;92.50
3082;BME280;1551;51.046;7.010;2023-03-26T09:02:14;99523.38;;;10.02;91.33
3082;BME280;1551;51.046;7.010;2023-03-26T09:30:57;99496.78;;;9.77;90.81
3082;BME280;1551;51.046;7.010;2023-03-26T09:33:54;99482.44;;;9.73;90.10
3082;BME280;1551;51.046;7.010;2023-03-26T09:36:52;99487.69;;;9.66;90.21
3082;BME280;1551;51.046;7.010;2023-03-26T09:39:51;99485.06;;;9.69;89.42
3082;BME280;1551;51.046;7.010;2023-03-26T09:42:53;99489.25;;;9.72;89.93
3082;BME280;1551;51.046;7.010;2023-03-26T09:45:51;99481.38;;;9.80;89.11
3082;BME280;1551;51.046;7.010;2023-03-26T10:00:58;99457.28;;;9.88;88.23
3082;BME280;1551;51.046;7.010;2023-03-26T10:04:09;99456.19;;;9.98;88.02
3082;BME280;1551;51.046;7.010;2023-03-26T10:23:02;99431.06;;;10.14;86.55
3082;BME280;1551;51.046;7.010;2023-03-26T10:35:10;99417.28;;;10.18;84.90
3082;BME280;1551;51.046;7.010;2023-03-26T10:50:56;99401.59;;;10.30;85.79
3082;BME280;1551;51.046;7.010;2023-03-26T10:56:54;99395.34;;;10.40;85.21
3082;BME280;1551;51.046;7.010;2023-03-26T10:59:44;99391.78;;;10.44;85.35
3082;BME280;1551;51.046;7.010;2023-03-26T11:02:45;99380.06;;;10.37;84.75
3082;BME280;1551;51.046;7.010;2023-03-26T11:18:05;99374.72;;;10.72;85.31
3082;BME280;1551;51.046;7.010;2023-03-26T11:27:29;99360.66;;;11.10;84.08
3082;BME280;1551;51.046;7.010;2023-03-26T11:33:42;99353.13;;;11.05;82.96
3082;BME280;1551;51.046;7.010;2023-03-26T11:36:36;99350.81;;;10.98;83.34
3082;BME280;1551;51.046;7.010;2023-03-26T11:39:38;99339.97;;;10.91;82.77
3082;BME280;1551;51.046;7.010;2023-03-26T11:42:29;99346.63;;;10.95;83.27
3082;BME280;1551;51.046;7.010;2023-03-26T11:45:21;99348.41;;;10.93;83.61
3082;BME280;1551;51.046;7.010;2023-03-26T11:48:42;99351.75;;;10.95;83.96
3082;BME280;1551;51.046;7.010;2023-03-26T11:51:34;99350.72;;;11.01;83.86
3082;BME280;1551;51.046;7.010;2023-03-26T11:54:24;99330.41;;;10.96;83.69
3082;BME280;1551;51.046;7.010;2023-03-26T11:57:18;99347.19;;;11.05;83.73
3082;BME280;1551;51.046;7.010;2023-03-26T12:00:12;99346.75;;;10.92;84.54
3082;BME280;1551;51.046;7.010;2023-03-26T12:03:13;99348.72;;;11.09;84.74
3082;BME280;1551;51.046;7.010;2023-03-26T12:06:03;99357.31;;;11.33;84.33
3082;BME280;1551;51.046;7.010;2023-03-26T12:08:52;99353.44;;;11.70;84.49
3082;BME280;1551;51.046;7.010;2023-03-26T12:11:41;99343.50;;;12.08;83.52
3082;BME280;1551;51.046;7.010;2023-03-26T12:14:33;99339.44;;;12.24;81.83
3082;BME280;1551;51.046;7.010;2023-03-26T12:26:40;99337.16;;;13.01;80.16
3082;BME280;1551;51.046;7.010;2023-03-26T12:29:29;99327.34;;;13.13;79.36
3082;BME280;1551;51.046;7.010;2023-03-26T12:32:22;99320.25;;;13.18;79.01
3082;BME280;1551;51.046;7.010;2023-03-26T12:35:16;99337.31;;;13.59;79.52
3082;BME280;1551;51.046;7.010;2023-03-26T12:38:21;99336.03;;;14.23;77.85
3082;BME280;1551;51.046;7.010;2023-03-26T12:41:13;99340.28;;;14.79;74.42
3082;BME280;1551;51.046;7.010;2023-03-26T12:44:30;99338.91;;;14.72;72.43
3082;BME280;1551;51.046;7.010;2023-03-26T12:47:27;99338.78;;;14.92;72.11
3082;BME280;1551;51.046;7.010;2023-03-26T12:50:19;99342.31;;;14.89;71.89
3082;BME280;1551;51.046;7.010;2023-03-26T12:59:23;99340.94;;;14.48;71.25
3082;BME280;1551;51.046;7.010;2023-03-26T13:06:50;99347.16;;;13.49;73.57
3082;BME280;1551;51.046;7.010;2023-03-26T13:09:24;99354.75;;;13.32;74.77
3082;BME280;1551;51.046;7.010;2023-03-26T13:12:38;99353.16;;;13.09;75.41
3082;BME280;1551;51.046;7.010;2023-03-26T13:15:35;99346.97;;;13.14;76.57
3082;BME280;1551;51.046;7.010;2023-03-26T13:18:50;99357.31;;;13.32;75.81
3082;BME280;1551;51.046;7.010;2023-03-26T13:34:50;99377.22;;;14.05;72.41
3082;BME280;1551;51.046;7.010;2023-03-26T13:47:09;99366.25;;;13.83;72.84
3082;BME280;1551;51.046;7.010;2023-03-26T13:50:31;99372.47;;;13.77;72.89
3082;BME280;1551;51.046;7.010;2023-03-26T13:53:30;99372.16;;;13.85;72.88
3082;BME280;1551;51.046;7.010;2023-03-26T13:56:26;99375.81;;;13.79;72.67
3082;BME280;1551;51.046;7.010;2023-03-26T13:59:36;99380.84;;;14.01;71.56
3082;BME280;1551;51.046;7.010;2023-03-26T14:02:29;99387.09;;;14.14;71.04
3082;BME280;1551;51.046;7.010;2023-03-26T14:05:33;99382.38;;;14.23;70.62
3082;BME280;1551;51.046;7.010;2023-03-26T14:08:29;99371.50;;;14.37;70.09
3082;BME280;1551;51.046;7.010;2023-03-26T14:11:29;99394.00;;;14.51;69.42
3082;BME280;1551;51.046;7.010;2023-03-26T14:14:30;99399.00;;;14.16;69.57
3082;BME280;1551;51.046;7.010;2023-03-26T14:17:33;99401.13;;;13.88;69.72
3082;BME280;1551;51.046;7.010;2023-03-26T14:24:12;99398.16;;;13.58;69.97
3082;BME280;1551;51.046;7.010;2023-03-26T14:27:29;99398.41;;;13.72;69.93
3082;BME280;1551;51.046;7.010;2023-03-26T14:30:55;99413.13;;;14.08;69.72
3082;BME280;1551;51.046;7.010;2023-03-26T14:33:54;99411.03;;;14.16;69.02
3082;BME280;1551;51.046;7.010;2023-03-26T14:39:58;99424.03;;;13.94;68.14
3082;BME280;1551;51.046;7.010;2023-03-26T14:46:10;99432.81;;;13.89;67.54
3082;BME280;1551;51.046;7.010;2023-03-26T14:49:12;99426.34;;;13.80;67.45
3082;BME280;1551;51.046;7.010;2023-03-26T14:52:25;99432.34;;;13.40;67.99
3082;BME280;1551;51.046;7.010;2023-03-26T15:11:18;99452.75;;;13.01;70.78
3082;BME280;1551;51.046;7.010;2023-03-26T15:14:42;99454.84;;;12.92;70.28
3082;BME280;1551;51.046;7.010;2023-03-26T15:21:01;99460.88;;;12.91;70.73
3082;BME280;1551;51.046;7.010;2023-03-26T15:27:33;99475.13;;;12.55;71.19
3082;BME280;1551;51.046;7.010;2023-03-26T15:30:53;99474.34;;;12.29;71.82
3082;BME280;1551;51.046;7.010;2023-03-26T15:40:27;99485.28;;;11.87;72.43
3082;BME280;1551;51.046;7.010;2023-03-26T15:43:19;99490.94;;;11.96;73.76
3082;BME280;1551;51.046;7.010;2023-03-26T15:49:05;99500.31;;;11.97;72.67
3082;BME280;1551;51.046;7.010;2023-03-26T15:55:51;99502.69;;;11.79;73.31
3082;BME280;1551;51.046;7.010;2023-03-26T16:11:03;99533.81;;;11.40;72.80
3082;BME280;1551;51.046;7.010;2023-03-26T16:14:16;99536.44;;;11.39;73.61
3082;BME280;1551;51.046;7.010;2023-03-26T16:17:11;99548.88;;;11.49;74.12
3082;BME280;1551;51.046;7.010;2023-03-26T16:20:23;99560.41;;;11.36;73.12
3082;BME280;1551;51.046;7.010;2023-03-26T16:26:18;99547.34;;;11.18;73.22
3082;BME280;1551;51.046;7.010;2023-03-26T16:32:33;99568.06;;;11.10;73.74
3082;BME280;1551;51.046;7.010;2023-03-26T16:44:40;99583.34;;;11.13;75.49
3082;BME280;1551;51.046;7.010;2023-03-26T16:47:38;99601.13;;;11.18;75.63
3082;BME280;1551;51.046;7.010;2023-03-26T16:53:41;99609.81;;;11.12;75.25
3082;BME280;1551;51.046;7.010;2023-03-26T16:56:48;99619.47;;;11.04;75.32
3082;BME280;1551;51.046;7.010;2023-03-26T17:06:22;99639.34;;;10.94;75.34
3082;BME280;1551;51.046;7.010;2023-03-26T17:12:47;99654.09;;;10.86;76.16
3082;BME280;1551;51.046;7.010;2023-03-26T17:15:52;99656.91;;;10.77;75.88
3082;BME280;1551;51.046;7.010;2023-03-26T17:18:57;99658.75;;;10.72;76.73
3082;BME280;1551;51.046;7.010;2023-03-26T17:22:02;99675.00;;;10.71;77.00
3082;BME280;1551;51.046;7.010;2023-03-26T17:25:02;99669.75;;;10.76;77.81
3082;BME280;1551;51.046;7.010;2023-03-26T17:28:17;99689.38;;;10.75;77.67
3082;BME280;1551;51.046;7.010;2023-03-26T17:31:19;99701.63;;;10.63;77.56
3082;BME280;1551;51.046;7.010;2023-03-26T17:34:31;99706.22;;;10.52;77.90
3082;BME280;1551;51.046;7.010;2023-03-26T17:40:30;99712.16;;;10.52;78.60
3082;BME280;1551;51.046;7.010;2023-03-26T17:49:28;99739.53;;;10.49;80.16
3082;BME280;1551;51.046;7.010;2023-03-26T17:52:22;99741.34;;;10.44;79.30
3082;BME280;1551;51.046;7.010;2023-03-26T17:55:23;99738.22;;;10.32;79.21
3082;BME280;1551;51.046;7.010;2023-03-26T17:58:28;99754.41;;;10.33;79.64
3082;BME280;1551;51.046;7.010;2023-03-26T18:01:25;99757.31;;;10.18;79.49
3082;BME280;1551;51.046;7.010;2023-03-26T18:04:20;99769.28;;;10.17;79.86
3082;BME280;1551;51.046;7.010;2023-03-26T18:07:48;99779.63;;;10.11;80.19
3082;BME280;1551;51.046;7.010;2023-03-26T18:16:56;99807.84;;;10.07;79.58
3082;BME280;1551;51.046;7.010;2023-03-26T18:19:52;99811.50;;;9.95;79.04
3082;BME280;1551;51.046;7.010;2023-03-26T18:22:43;99810.06;;;9.84;77.74
3082;BME280;1551;51.046;7.010;2023-03-26T18:25:31;99824.44;;;9.88;77.51
3082;BME280;1551;51.046;7.010;2023-03-26T18:28:29;99825.38;;;9.84;77.82
3082;BME280;1551;51.046;7.010;2023-03-26T18:31:24;99830.34;;;9.90;77.32
3082;BME280;1551;51.046;7.010;2023-03-26T18:34:15;99839.75;;;9.89;76.65
3082;BME280;1551;51.046;7.010;2023-03-26T18:37:20;99849.13;;;9.89;76.58
3082;BME280;1551;51.046;7.010;2023-03-26T18:40:22;99844.19;;;9.81;77.15
3082;BME280;1551;51.046;7.010;2023-03-26T18:43:20;99867.03;;;9.87;76.27
3082;BME280;1551;51.046;7.010;2023-03-26T18:46:13;99857.66;;;9.89;76.32
3082;BME280;1551;51.046;7.010;2023-03-26T18:49:02;99872.22;;;9.84;76.67
3082;BME280;1551;51.046;7.010;2023-03-26T18:51:52;99875.78;;;9.76;77.18
3082;BME280;1551;51.046;7.010;2023-03-26T18:54:41;99888.41;;;9.83;76.90
3082;BME280;1551;51.046;7.010;2023-03-26T18:57:31;99893.59;;;9.80;77.37
3082;BME280;1551;51.046;7.010;2023-03-26T19:00:22;99899.72;;;9.72;76.97
3082;BME280;1551;51.046;7.010;2023-03-26T19:03:15;99904.78;;;9.73;77.66
3082;BME280;1551;51.046;7.010;2023-03-26T19:06:07;99899.78;;;9.68;77.76
3082;BME280;1551;51.046;7.010;2023-03-26T19:08:58;99914.44;;;9.59;76.66
3082;BME280;1551;51.046;7.010;2023-03-26T19:11:49;99926.44;;;9.55;77.15
3082;BME280;1551;51.046;7.010;2023-03-26T19:15:04;99919.84;;;9.44;76.45
3082;BME280;1551;51.046;7.010;2023-03-26T19:18:02;99944.41;;;9.51;76.41
3082;BME280;1551;51.046;7.010;2023-03-26T19:21:02;99938.41;;;9.53;76.10
3082;BME280;1551;51.046;7.010;2023-03-26T19:23:52;99949.53;;;9.49;75.76
3082;BME280;1551;51.046;7.010;2023-03-26T19:26:43;99945.38;;;9.44;74.06
3082;BME280;1551;51.046;7.010;2023-03-26T19:29:34;99948.75;;;9.46;73.85
3082;BME280;1551;51.046;7.010;2023-03-26T19:32:29;99973.41;;;9.47;72.75
3082;BME280;1551;51.046;7.010;2023-03-26T19:35:20;99971.72;;;9.46;72.59
3082;BME280;1551;51.046;7.010;2023-03-26T19:41:23;99980.28;;;9.43;71.00
3082;BME280;1551;51.046;7.010;2023-03-26T19:44:27;99981.22;;;9.39;70.94
3082;BME280;1551;51.046;7.010;2023-03-26T19:47:22;99981.38;;;9.30;70.30
3082;BME280;1551;51.046;7.010;2023-03-26T19:50:24;99993.16;;;9.36;70.64
3082;BME280;1551;51.046;7.010;2023-03-26T19:53:19;99986.47;;;9.30;70.21
3082;BME280;1551;51.046;7.010;2023-03-26T19:56:13;100003.34;;;9.39;69.94
3082;BME280;1551;51.046;7.010;2023-03-26T19:59:02;100010.31;;;9.29;70.28
3082;BME280;1551;51.046;7.010;2023-03-26T20:01:52;100008.69;;;9.24;69.90
3082;BME280;1551;51.046;7.010;2023-03-26T20:04:41;100007.84;;;9.23;69.64
3082;BME280;1551;51.046;7.010;2023-03-26T20:07:31;100025.81;;;9.19;69.90
3082;BME280;1551;51.046;7.010;2023-03-26T20:10:23;100022.28;;;9.26;69.14
3082;BME280;1551;51.046;7.010;2023-03-26T20:13:16;100029.06;;;9.28;69.31
3082;BME280;1551;51.046;7.010;2023-03-26T20:16:24;100037.53;;;9.29;70.00
3082;BME280;1551;51.046;7.010;2023-03-26T20:19:13;100041.94;;;9.19;70.23
3082;BME280;1551;51.046;7.010;2023-03-26T20:22:04;100038.63;;;9.13;70.22
3082;BME280;1551;51.046;7.010;2023-03-26T20:24:53;100036.16;;;9.08;70.67
3082;BME280;1551;51.046;7.010;2023-03-26T20:27:42;100043.00;;;9.06;70.22
3082;BME280;1551;51.046;7.010;2023-03-26T20:30:31;100052.44;;;8.99;69.51
3082;BME280;1551;51.046;7.010;2023-03-26T20:33:23;100056.75;;;8.96;69.86
3082;BME280;1551;51.046;7.010;2023-03-26T20:36:13;100072.94;;;8.93;69.89
3082;BME280;1551;51.046;7.010;2023-03-26T20:39:03;100079.84;;;8.88;70.03
3082;BME280;1551;51.046;7.010;2023-03-26T20:41:55;100081.63;;;8.80;69.93
3082;BME280;1551;51.046;7.010;2023-03-26T20:44:44;100098.63;;;8.81;69.54
3082;BME280;1551;51.046;7.010;2023-03-26T20:47:33;100094.41;;;8.79;69.66
3082;BME280;1551;51.046;7.010;2023-03-26T20:50:22;100102.94;;;8.75;69.86
3082;BME280;1551;51.046;7.010;2023-03-26T20:53:14;100104.59;;;8.80;69.68
3082;BME280;1551;51.046;7.010;2023-03-26T20:56:04;100103.72;;;8.80;69.71
3082;BME280;1551;51.046;7.010;2023-03-26T20:58:53;100117.50;;;8.67;69.63
3082;BME280;1551;51.046;7.010;2023-03-26T21:01:46;100121.78;;;8.65;69.23
3082;BME280;1551;51.046;7.010;2023-03-26T21:04:35;100131.13;;;8.63;69.04
3082;BME280;1551;51.046;7.010;2023-03-26T21:07:24;100132.03;;;8.62;68.22
3082;BME280;1551;51.046;7.010;2023-03-26T21:10:14;100148.06;;;8.71;68.89